sensor_id;sensor_type;location;lat;lon;timestamp;pressure;altitude;pressure_sealevel;temperature;humidity
62710;BME280;48770;51.624;5.886;2023-04-28T00:00:50;101215.16;;;19.93;35.71
62710;BME280;48770;51.624;5.886;2023-04-28T00:03:15;101204.41;;;19.92;35.58
62710;BME280;48770;51.624;5.886;2023-04-28T00:05:41;101208.81;;;19.93;35.61
62710;BME280;48770;51.624;5.886;2023-04-28T00:08:06;101205.22;;;19.92;35.83
62710;BME280;48770;51.624;5.886;2023-04-28T00:10:33;101208.00;;;19.92;35.61
62710;BME280;48770;51.624;5.886;2023-04-28T00:12:58;101202.44;;;19.92;35.61
62710;BME280;48770;51.624;5.886;2023-04-28T00:15:23;101202.44;;;19.92;35.63
62710;BME280;48770;51.624;5.886;2023-04-28T00:17:49;101196.91;;;19.92;35.60
62710;BME280;48770;51.624;5.886;2023-04-28T00:20:15;101195.28;;;19.91;35.68
62710;BME280;48770;51.624;5.886;2023-04-28T00:22:40;101191.34;;;19.92;35.57
62710;BME280;48770;51.624;5.886;2023-04-28T00:25:06;101189.72;;;19.91;35.72
62710;BME280;48770;51.624;5.886;2023-04-28T00:27:32;101184.16;;;19.91;35.80
62710;BME280;48770;51.624;5.886;2023-04-28T00:29:58;101185.78;;;19.92;35.64
62710;BME280;48770;51.624;5.886;2023-04-28T00:32:23;101184.16;;;19.91;35.77
62710;BME280;48770;51.624;5.886;2023-04-28T00:34:48;101184.16;;;19.91;35.73
62710;BME280;48770;51.624;5.886;2023-04-28T00:37:14;101178.63;;;19.91;35.75
62710;BME280;48770;51.624;5.886;2023-04-28T00:39:39;101177.00;;;19.90;35.73
62710;BME280;48770;51.624;5.886;2023-04-28T00:42:06;101177.00;;;19.90;35.53
62710;BME280;48770;51.624;5.886;2023-04-28T00:44:31;101172.25;;;19.91;35.73
62710;BME280;48770;51.624;5.886;2023-04-28T00:46:57;101172.59;;;19.89;35.59
62710;BME280;48770;51.624;5.886;2023-04-28T00:49:24;101172.25;;;19.91;35.67
62710;BME280;48770;51.624;5.886;2023-04-28T00:51:49;101168.66;;;19.90;35.71
62710;BME280;48770;51.624;5.886;2023-04-28T00:54:15;101163.13;;;19.90;35.98
62710;BME280;48770;51.624;5.886;2023-04-28T00:56:42;101152.03;;;19.90;35.86
62710;BME280;48770;51.624;5.886;2023-04-28T00:59:07;101154.78;;;19.90;35.88
62710;BME280;48770;51.624;5.886;2023-04-28T01:01:34;101155.94;;;19.89;35.71
62710;BME280;48770;51.624;5.886;2023-04-28T01:03:59;101152.34;;;19.89;35.60
62710;BME280;48770;51.624;5.886;2023-04-28T01:06:26;101150.41;;;19.89;35.72
62710;BME280;48770;51.624;5.886;2023-04-28T01:08:52;101138.47;;;19.89;35.68
62710;BME280;48770;51.624;5.886;2023-04-28T01:11:18;101139.28;;;19.89;35.96
62710;BME280;48770;51.624;5.886;2023-04-28T01:13:44;101135.72;;;19.89;35.68
62710;BME280;48770;51.624;5.886;2023-04-28T01:16:09;101129.34;;;19.88;35.72
62710;BME280;48770;51.624;5.886;2023-04-28T01:18:35;101131.31;;;19.88;35.54
62710;BME280;48770;51.624;5.886;2023-04-28T01:21:01;101136.88;;;19.88;35.73
62710;BME280;48770;51.624;5.886;2023-04-28T01:23:28;101132.13;;;19.88;35.61
62710;BME280;48770;51.624;5.886;2023-04-28T01:25:53;101131.31;;;19.88;35.57
62710;BME280;48770;51.624;5.886;2023-04-28T01:28:19;101124.94;;;19.87;35.64
62710;BME280;48770;51.624;5.886;2023-04-28T01:30:44;101123.00;;;19.88;35.72
62710;BME280;48770;51.624;5.886;2023-04-28T01:33:09;101121.38;;;19.87;35.54
62710;BME280;48770;51.624;5.886;2023-04-28T01:35:35;101117.78;;;19.86;35.58
62710;BME280;48770;51.624;5.886;2023-04-28T01:38:00;101102.75;;;19.87;35.81
62710;BME280;48770;51.624;5.886;2023-04-28T01:40:26;101104.72;;;19.87;35.67
62710;BME280;48770;51.624;5.886;2023-04-28T01:42:51;101099.16;;;19.87;35.69
62710;BME280;48770;51.624;5.886;2023-04-28T01:45:17;101102.28;;;19.85;35.62
62710;BME280;48770;51.624;5.886;2023-04-28T01:47:42;101103.09;;;19.86;35.60
62710;BME280;48770;51.624;5.886;2023-04-28T01:50:07;101103.09;;;19.86;35.77
62710;BME280;48770;51.624;5.886;2023-04-28T01:52:33;101098.69;;;19.85;35.97
62710;BME280;48770;51.624;5.886;2023-04-28T01:54:58;101099.50;;;19.85;35.76
62710;BME280;48770;51.624;5.886;2023-04-28T01:57:24;101096.72;;;19.85;35.76
62710;BME280;48770;51.624;5.886;2023-04-28T01:59:50;101100.66;;;19.84;35.69
62710;BME280;48770;51.624;5.886;2023-04-28T02:02:15;101098.69;;;19.85;35.61
62710;BME280;48770;51.624;5.886;2023-04-28T02:04:40;101091.53;;;19.84;35.52
62710;BME280;48770;51.624;5.886;2023-04-28T02:07:06;101096.25;;;19.83;35.76
62710;BME280;48770;51.624;5.886;2023-04-28T02:09:34;101088.75;;;19.84;35.69
62710;BME280;48770;51.624;5.886;2023-04-28T02:12:00;101078.47;;;19.84;35.56
62710;BME280;48770;51.624;5.886;2023-04-28T02:14:26;101065.72;;;19.83;35.74
62710;BME280;48770;51.624;5.886;2023-04-28T02:16:52;101048.28;;;19.83;35.72
62710;BME280;48770;51.624;5.886;2023-04-28T02:19:17;101047.47;;;19.82;35.86
62710;BME280;48770;51.624;5.886;2023-04-28T02:21:42;101041.09;;;19.82;35.82
62710;BME280;48770;51.624;5.886;2023-04-28T02:24:10;101056.59;;;19.83;35.48
62710;BME280;48770;51.624;5.886;2023-04-28T02:26:36;101058.56;;;19.82;35.84
62710;BME280;48770;51.624;5.886;2023-04-28T02:29:01;101060.53;;;19.82;35.64
62710;BME280;48770;51.624;5.886;2023-04-28T02:31:28;101068.50;;;19.83;35.75
62710;BME280;48770;51.624;5.886;2023-04-28T02:33:54;101073.25;;;19.83;36.01
62710;BME280;48770;51.624;5.886;2023-04-28T02:36:20;101073.59;;;19.81;35.60
62710;BME280;48770;51.624;5.886;2023-04-28T02:38:46;101065.28;;;19.81;35.85
62710;BME280;48770;51.624;5.886;2023-04-28T02:41:11;101061.34;;;19.82;35.69
62710;BME280;48770;51.624;5.886;2023-04-28T02:43:37;101048.63;;;19.81;35.73
62710;BME280;48770;51.624;5.886;2023-04-28T02:46:03;101062.50;;;19.81;35.63
62710;BME280;48770;51.624;5.886;2023-04-28T02:48:29;101050.25;;;19.82;35.68
62710;BME280;48770;51.624;5.886;2023-04-28T02:50:54;101038.66;;;19.80;35.54
62710;BME280;48770;51.624;5.886;2023-04-28T02:53:20;101040.28;;;19.81;35.57
62710;BME280;48770;51.624;5.886;2023-04-28T02:55:46;101022.84;;;19.81;35.60
62710;BME280;48770;51.624;5.886;2023-04-28T02:58:11;101010.94;;;19.80;35.58
62710;BME280;48770;51.624;5.886;2023-04-28T03:00:37;101003.75;;;19.79;35.63
62710;BME280;48770;51.624;5.886;2023-04-28T03:03:02;101004.56;;;19.80;35.64
62710;BME280;48770;51.624;5.886;2023-04-28T03:05:28;100991.03;;;19.78;35.74
62710;BME280;48770;51.624;5.886;2023-04-28T03:07:53;100984.66;;;19.78;35.71
62710;BME280;48770;51.624;5.886;2023-04-28T03:10:18;100980.75;;;19.79;35.55
62710;BME280;48770;51.624;5.886;2023-04-28T03:12:44;100971.63;;;19.78;35.83
62710;BME280;48770;51.624;5.886;2023-04-28T03:15:09;100963.28;;;19.78;35.67
62710;BME280;48770;51.624;5.886;2023-04-28T03:17:35;100964.41;;;19.77;35.61
62710;BME280;48770;51.624;5.886;2023-04-28T03:20:03;100968.00;;;19.78;35.77
62710;BME280;48770;51.624;5.886;2023-04-28T03:22:29;100979.09;;;19.78;35.52
62710;BME280;48770;51.624;5.886;2023-04-28T03:24:54;100979.09;;;19.78;35.75
62710;BME280;48770;51.624;5.886;2023-04-28T03:27:19;100975.50;;;19.77;35.64
62710;BME280;48770;51.624;5.886;2023-04-28T03:29:45;100985.81;;;19.77;35.67
62710;BME280;48770;51.624;5.886;2023-04-28T03:32:10;100991.34;;;19.77;35.86
62710;BME280;48770;51.624;5.886;2023-04-28T03:34:36;100993.31;;;19.76;35.64
62710;BME280;48770;51.624;5.886;2023-04-28T03:37:01;100985.81;;;19.77;35.95
62710;BME280;48770;51.624;5.886;2023-04-28T03:39:27;100973.91;;;19.76;35.69
62710;BME280;48770;51.624;5.886;2023-04-28T03:41:52;100973.91;;;19.76;35.75
62710;BME280;48770;51.624;5.886;2023-04-28T03:44:17;100963.13;;;19.75;35.56
62710;BME280;48770;51.624;5.886;2023-04-28T03:46:43;100963.94;;;19.75;35.71
62710;BME280;48770;51.624;5.886;2023-04-28T03:49:08;100966.72;;;19.75;35.62
62710;BME280;48770;51.624;5.886;2023-04-28T03:51:33;100965.91;;;19.75;35.82
62710;BME280;48770;51.624;5.886;2023-04-28T03:53:59;100961.50;;;19.74;35.82
62710;BME280;48770;51.624;5.886;2023-04-28T03:56:24;100962.31;;;19.74;35.71
62710;BME280;48770;51.624;5.886;2023-04-28T03:58:50;100957.94;;;19.73;35.74
62710;BME280;48770;51.624;5.886;2023-04-28T04:01:15;100960.72;;;19.73;35.74
62710;BME280;48770;51.624;5.886;2023-04-28T04:03:41;100949.63;;;19.73;35.89
62710;BME280;48770;51.624;5.886;2023-04-28T04:06:06;100957.94;;;19.73;35.56
62710;BME280;48770;51.624;5.886;2023-04-28T04:08:32;100951.56;;;19.73;35.73
62710;BME280;48770;51.624;5.886;2023-04-28T04:10:57;100946.03;;;19.73;35.64
62710;BME280;48770;51.624;5.886;2023-04-28T04:13:23;100943.59;;;19.71;35.74
62710;BME280;48770;51.624;5.886;2023-04-28T04:15:48;100940.81;;;19.71;35.69
62710;BME280;48770;51.624;5.886;2023-04-28T04:18:17;100949.16;;;19.71;35.93
62710;BME280;48770;51.624;5.886;2023-04-28T04:20:42;100948.00;;;19.72;35.74
62710;BME280;48770;51.624;5.886;2023-04-28T04:23:08;100953.53;;;19.72;35.63
62710;BME280;48770;51.624;5.886;2023-04-28T04:25:34;100954.69;;;19.71;35.68
62710;BME280;48770;51.624;5.886;2023-04-28T04:28:00;100951.91;;;19.71;35.73
62710;BME280;48770;51.624;5.886;2023-04-28T04:30:25;100945.56;;;19.70;35.74
62710;BME280;48770;51.624;5.886;2023-04-28T04:32:50;100951.91;;;19.71;35.82
62710;BME280;48770;51.624;5.886;2023-04-28T04:35:16;100947.53;;;19.70;35.90
62710;BME280;48770;51.624;5.886;2023-04-28T04:37:41;100943.94;;;19.69;35.82
62710;BME280;48770;51.624;5.886;2023-04-28T04:40:07;100932.84;;;19.69;35.83
62710;BME280;48770;51.624;5.886;2023-04-28T04:42:33;100934.81;;;19.69;35.94
62710;BME280;48770;51.624;5.886;2023-04-28T04:44:58;100932.03;;;19.69;35.76
62710;BME280;48770;51.624;5.886;2023-04-28T04:47:23;100937.59;;;19.69;35.71
62710;BME280;48770;51.624;5.886;2023-04-28T04:49:49;100932.03;;;19.69;35.94
62710;BME280;48770;51.624;5.886;2023-04-28T04:52:15;100932.84;;;19.69;35.83
62710;BME280;48770;51.624;5.886;2023-04-28T04:54:40;100932.03;;;19.69;35.67
62710;BME280;48770;51.624;5.886;2023-04-28T04:57:06;100934.81;;;19.69;35.64
62710;BME280;48770;51.624;5.886;2023-04-28T04:59:31;100942.31;;;19.68;35.70
62710;BME280;48770;51.624;5.886;2023-04-28T05:01:57;100932.03;;;19.69;36.02
62710;BME280;48770;51.624;5.886;2023-04-28T05:04:22;100934.81;;;19.69;35.75
62710;BME280;48770;51.624;5.886;2023-04-28T05:06:47;100924.06;;;19.67;35.90
62710;BME280;48770;51.624;5.886;2023-04-28T05:09:13;100927.16;;;19.66;35.66
62710;BME280;48770;51.624;5.886;2023-04-28T05:11:38;100931.56;;;19.67;35.88
62710;BME280;48770;51.624;5.886;2023-04-28T05:14:03;100931.56;;;19.67;35.82
62710;BME280;48770;51.624;5.886;2023-04-28T05:16:29;100927.16;;;19.66;35.87
62710;BME280;48770;51.624;5.886;2023-04-28T05:18:54;100912.16;;;19.67;35.83
62710;BME280;48770;51.624;5.886;2023-04-28T05:21:20;100915.25;;;19.65;35.91
62710;BME280;48770;51.624;5.886;2023-04-28T05:23:45;100918.03;;;19.65;35.82
62710;BME280;48770;51.624;5.886;2023-04-28T05:26:11;100917.22;;;19.65;35.73
62710;BME280;48770;51.624;5.886;2023-04-28T05:28:36;100918.03;;;19.65;35.63
62710;BME280;48770;51.624;5.886;2023-04-28T05:31:01;100911.69;;;19.65;35.80
62710;BME280;48770;51.624;5.886;2023-04-28T05:33:26;100916.06;;;19.66;35.75
62710;BME280;48770;51.624;5.886;2023-04-28T05:35:52;100908.91;;;19.65;35.83
62710;BME280;48770;51.624;5.886;2023-04-28T05:38:17;100905.31;;;19.64;35.69
62710;BME280;48770;51.624;5.886;2023-04-28T05:40:43;100903.38;;;19.65;35.73
62710;BME280;48770;51.624;5.886;2023-04-28T05:43:08;100905.31;;;19.64;35.67
62710;BME280;48770;51.624;5.886;2023-04-28T05:45:33;100891.47;;;19.64;35.90
62710;BME280;48770;51.624;5.886;2023-04-28T05:47:59;100892.28;;;19.65;35.71
62710;BME280;48770;51.624;5.886;2023-04-28T05:50:24;100893.06;;;19.65;35.95
62710;BME280;48770;51.624;5.886;2023-04-28T05:52:50;100889.50;;;19.65;35.77
62710;BME280;48770;51.624;5.886;2023-04-28T05:55:15;100885.91;;;19.64;35.90
62710;BME280;48770;51.624;5.886;2023-04-28T05:57:41;100880.38;;;19.64;36.00
62710;BME280;48770;51.624;5.886;2023-04-28T06:00:07;100892.28;;;19.65;35.80
62710;BME280;48770;51.624;5.886;2023-04-28T06:02:32;100893.06;;;19.65;35.83
62710;BME280;48770;51.624;5.886;2023-04-28T06:04:57;100900.59;;;19.65;35.80
62710;BME280;48770;51.624;5.886;2023-04-28T06:07:23;100899.78;;;19.64;35.86
62710;BME280;48770;51.624;5.886;2023-04-28T06:09:48;100899.78;;;19.64;35.97
62710;BME280;48770;51.624;5.886;2023-04-28T06:12:14;100898.97;;;19.64;35.96
62710;BME280;48770;51.624;5.886;2023-04-28T06:14:39;100895.03;;;19.65;35.73
62710;BME280;48770;51.624;5.886;2023-04-28T06:17:04;100889.50;;;19.65;35.81
62710;BME280;48770;51.624;5.886;2023-04-28T06:19:30;100889.50;;;19.65;35.87
62710;BME280;48770;51.624;5.886;2023-04-28T06:21:55;100899.78;;;19.64;35.97
62710;BME280;48770;51.624;5.886;2023-04-28T06:24:21;100898.97;;;19.64;35.86
62710;BME280;48770;51.624;5.886;2023-04-28T06:26:46;100899.44;;;19.66;35.72
62710;BME280;48770;51.624;5.886;2023-04-28T06:29:11;100891.47;;;19.64;35.85
62710;BME280;48770;51.624;5.886;2023-04-28T06:31:37;100901.75;;;19.64;35.85
62710;BME280;48770;51.624;5.886;2023-04-28T06:34:02;100906.13;;;19.65;35.94
62710;BME280;48770;51.624;5.886;2023-04-28T06:36:28;100902.56;;;19.64;35.84
62710;BME280;48770;51.624;5.886;2023-04-28T06:38:53;100906.13;;;19.65;35.85
62710;BME280;48770;51.624;5.886;2023-04-28T06:41:18;100916.41;;;19.64;35.79
62710;BME280;48770;51.624;5.886;2023-04-28T06:43:44;100907.28;;;19.64;35.78
62710;BME280;48770;51.624;5.886;2023-04-28T06:46:09;100900.13;;;19.63;35.79
62710;BME280;48770;51.624;5.886;2023-04-28T06:48:35;100892.28;;;19.65;35.86
62710;BME280;48770;51.624;5.886;2023-04-28T06:51:00;100888.69;;;19.64;35.80
62710;BME280;48770;51.624;5.886;2023-04-28T06:53:26;100874.00;;;19.64;35.91
62710;BME280;48770;51.624;5.886;2023-04-28T06:55:51;100878.41;;;19.65;35.77
62710;BME280;48770;51.624;5.886;2023-04-28T06:58:17;100882.31;;;19.64;35.94
62710;BME280;48770;51.624;5.886;2023-04-28T07:00:42;100881.97;;;19.65;35.56
62710;BME280;48770;51.624;5.886;2023-04-28T07:03:08;100885.91;;;19.64;35.74
62710;BME280;48770;51.624;5.886;2023-04-28T07:05:33;100875.63;;;19.65;35.85
62710;BME280;48770;51.624;5.886;2023-04-28T07:07:58;100882.31;;;19.64;35.51
62710;BME280;48770;51.624;5.886;2023-04-28T07:10:24;100875.63;;;19.65;35.76
62710;BME280;48770;51.624;5.886;2023-04-28T07:12:49;100881.97;;;19.65;35.89
62710;BME280;48770;51.624;5.886;2023-04-28T07:15:16;100884.41;;;19.67;35.79
62710;BME280;48770;51.624;5.886;2023-04-28T07:17:42;100879.66;;;19.67;35.80
62710;BME280;48770;51.624;5.886;2023-04-28T07:20:07;100879.66;;;19.67;35.75
62710;BME280;48770;51.624;5.886;2023-04-28T07:22:33;100882.78;;;19.66;35.65
62710;BME280;48770;51.624;5.886;2023-04-28T07:24:58;100884.41;;;19.67;35.78
62710;BME280;48770;51.624;5.886;2023-04-28T07:27:24;100882.44;;;19.67;35.69
62710;BME280;48770;51.624;5.886;2023-04-28T07:29:49;100884.88;;;19.69;35.79
62710;BME280;48770;51.624;5.886;2023-04-28T07:32:14;100893.53;;;19.67;35.80
62710;BME280;48770;51.624;5.886;2023-04-28T07:34:40;100891.56;;;19.68;35.58
62710;BME280;48770;51.624;5.886;2023-04-28T07:37:05;100886.84;;;19.68;35.81
62710;BME280;48770;51.624;5.886;2023-04-28T07:39:31;100880.47;;;19.68;35.89
62710;BME280;48770;51.624;5.886;2023-04-28T07:41:58;100876.56;;;19.69;35.63
62710;BME280;48770;51.624;5.886;2023-04-28T07:44:24;100879.66;;;19.67;35.97
62710;BME280;48770;51.624;5.886;2023-04-28T07:46:49;100877.72;;;19.68;35.70
62710;BME280;48770;51.624;5.886;2023-04-28T07:49:15;100882.09;;;19.69;35.92
62710;BME280;48770;51.624;5.886;2023-04-28T07:51:40;100868.22;;;19.69;35.78
62710;BME280;48770;51.624;5.886;2023-04-28T07:54:06;100876.56;;;19.69;35.97
62710;BME280;48770;51.624;5.886;2023-04-28T07:56:31;100874.59;;;19.69;36.02
62710;BME280;48770;51.624;5.886;2023-04-28T07:58:57;100868.69;;;19.71;36.31
62710;BME280;48770;51.624;5.886;2023-04-28T08:01:22;100868.69;;;19.71;36.30
62710;BME280;48770;51.624;5.886;2023-04-28T08:03:47;100862.34;;;19.70;36.26
62710;BME280;48770;51.624;5.886;2023-04-28T08:06:13;100867.88;;;19.70;36.41
62710;BME280;48770;51.624;5.886;2023-04-28T08:08:38;100875.88;;;19.72;36.45
62710;BME280;48770;51.624;5.886;2023-04-28T08:11:04;100873.91;;;19.73;36.08
62710;BME280;48770;51.624;5.886;2023-04-28T08:13:30;100871.94;;;19.73;36.39
62710;BME280;48770;51.624;5.886;2023-04-28T08:15:55;100875.88;;;19.72;36.26
62710;BME280;48770;51.624;5.886;2023-04-28T08:18:21;100863.63;;;19.73;36.30
62710;BME280;48770;51.624;5.886;2023-04-28T08:20:46;100870.78;;;19.74;36.25
62710;BME280;48770;51.624;5.886;2023-04-28T08:23:12;100876.66;;;19.73;36.26
62710;BME280;48770;51.624;5.886;2023-04-28T08:25:37;100874.72;;;19.73;36.36
62710;BME280;48770;51.624;5.886;2023-04-28T08:28:03;100881.88;;;19.74;36.28
62710;BME280;48770;51.624;5.886;2023-04-28T08:30:30;100883.03;;;19.73;36.30
62710;BME280;48770;51.624;5.886;2023-04-28T08:32:56;100880.25;;;19.73;36.15
62710;BME280;48770;51.624;5.886;2023-04-28T08:35:21;100877.81;;;19.71;36.19
62710;BME280;48770;51.624;5.886;2023-04-28T08:37:47;100887.78;;;19.73;36.19
62710;BME280;48770;51.624;5.886;2023-04-28T08:40:14;100883.03;;;19.73;36.19
62710;BME280;48770;51.624;5.886;2023-04-28T08:42:40;100879.09;;;19.74;36.14
62710;BME280;48770;51.624;5.886;2023-04-28T08:45:06;100873.56;;;19.74;36.24
62710;BME280;48770;51.624;5.886;2023-04-28T08:47:36;100877.47;;;19.73;35.96
62710;BME280;48770;51.624;5.886;2023-04-28T08:50:04;100879.09;;;19.74;36.19
62710;BME280;48770;51.624;5.886;2023-04-28T08:52:30;100881.06;;;19.74;35.85
62710;BME280;48770;51.624;5.886;2023-04-28T08:54:58;100881.06;;;19.74;36.06
62710;BME280;48770;51.624;5.886;2023-04-28T08:57:25;100880.25;;;19.73;36.10
62710;BME280;48770;51.624;5.886;2023-04-28T08:59:52;100884.66;;;19.74;36.09
62710;BME280;48770;51.624;5.886;2023-04-28T09:02:18;100880.25;;;19.73;36.30
62710;BME280;48770;51.624;5.886;2023-04-28T09:04:45;100877.47;;;19.73;36.25
62710;BME280;48770;51.624;5.886;2023-04-28T09:07:11;100878.28;;;19.74;36.21
62710;BME280;48770;51.624;5.886;2023-04-28T09:09:37;100871.94;;;19.73;36.08
62710;BME280;48770;51.624;5.886;2023-04-28T09:12:03;100873.56;;;19.74;36.13
62710;BME280;48770;51.624;5.886;2023-04-28T09:14:31;100873.56;;;19.74;36.15
62710;BME280;48770;51.624;5.886;2023-04-28T09:17:00;100883.50;;;19.75;36.13
62710;BME280;48770;51.624;5.886;2023-04-28T09:19:33;100877.94;;;19.75;36.27
62710;BME280;48770;51.624;5.886;2023-04-28T09:22:00;100875.16;;;19.75;36.04
62710;BME280;48770;51.624;5.886;2023-04-28T09:24:29;100866.03;;;19.75;36.18
62710;BME280;48770;51.624;5.886;2023-04-28T09:26:59;100872.41;;;19.75;36.18
62710;BME280;48770;51.624;5.886;2023-04-28T09:29:25;100875.97;;;19.76;36.09
62710;BME280;48770;51.624;5.886;2023-04-28T09:31:51;100864.88;;;19.76;36.04
62710;BME280;48770;51.624;5.886;2023-04-28T09:34:17;100874.00;;;19.76;36.25
62710;BME280;48770;51.624;5.886;2023-04-28T09:36:43;100871.25;;;19.76;36.14
62710;BME280;48770;51.624;5.886;2023-04-28T09:39:08;100865.69;;;19.76;36.29
62710;BME280;48770;51.624;5.886;2023-04-28T09:41:43;100878.75;;;19.76;36.06
62710;BME280;48770;51.624;5.886;2023-04-28T09:44:13;100863.25;;;19.75;36.07
62710;BME280;48770;51.624;5.886;2023-04-28T09:46:40;100872.41;;;19.75;35.92
62710;BME280;48770;51.624;5.886;2023-04-28T09:49:05;100874.00;;;19.76;36.06
62710;BME280;48770;51.624;5.886;2023-04-28T09:51:31;100868.00;;;19.74;36.22
62710;BME280;48770;51.624;5.886;2023-04-28T09:53:59;100868.47;;;19.76;35.86
62710;BME280;48770;51.624;5.886;2023-04-28T09:56:27;100865.69;;;19.76;36.01
62710;BME280;48770;51.624;5.886;2023-04-28T09:58:56;100864.88;;;19.76;36.13
62710;BME280;48770;51.624;5.886;2023-04-28T10:01:23;100865.69;;;19.76;36.19
62710;BME280;48770;51.624;5.886;2023-04-28T10:03:49;100861.75;;;19.77;36.28
62710;BME280;48770;51.624;5.886;2023-04-28T10:06:15;100866.50;;;19.77;36.19
62710;BME280;48770;51.624;5.886;2023-04-28T10:08:41;100868.47;;;19.76;36.09
62710;BME280;48770;51.624;5.886;2023-04-28T10:11:07;100870.44;;;19.76;36.25
62710;BME280;48770;51.624;5.886;2023-04-28T10:13:34;100868.13;;;19.78;36.16
62710;BME280;48770;51.624;5.886;2023-04-28T10:15:59;100868.47;;;19.76;36.26
62710;BME280;48770;51.624;5.886;2023-04-28T10:18:26;100871.25;;;19.76;36.25
62710;BME280;48770;51.624;5.886;2023-04-28T10:21:00;100869.63;;;19.75;36.08
62710;BME280;48770;51.624;5.886;2023-04-28T10:23:45;100870.44;;;19.76;36.14
62710;BME280;48770;51.624;5.886;2023-04-28T10:26:13;100875.16;;;19.75;36.32
62710;BME280;48770;51.624;5.886;2023-04-28T10:28:47;100871.25;;;19.76;35.98
62710;BME280;48770;51.624;5.886;2023-04-28T10:31:13;100871.59;;;19.75;36.12
62710;BME280;48770;51.624;5.886;2023-04-28T10:33:40;100875.97;;;19.76;36.34
62710;BME280;48770;51.624;5.886;2023-04-28T10:36:06;100871.25;;;19.76;36.40
62710;BME280;48770;51.624;5.886;2023-04-28T10:38:32;100869.28;;;19.77;36.38
62710;BME280;48770;51.624;5.886;2023-04-28T10:40:58;100868.13;;;19.78;36.25
62710;BME280;48770;51.624;5.886;2023-04-28T10:58:48;100867.53;;;19.60;36.33
62710;BME280;48770;51.624;5.886;2023-04-28T11:08:54;100862.44;;;19.74;36.36
62710;BME280;48770;51.624;5.886;2023-04-28T11:13:46;100860.16;;;19.76;36.26
62710;BME280;48770;51.624;5.886;2023-04-28T11:16:16;100864.53;;;19.77;36.36
62710;BME280;48770;51.624;5.886;2023-04-28T11:18:49;100868.97;;;19.78;36.31
62710;BME280;48770;51.624;5.886;2023-04-28T11:21:15;100867.31;;;19.77;36.61
62710;BME280;48770;51.624;5.886;2023-04-28T11:23:41;100862.56;;;19.78;36.49
62710;BME280;48770;51.624;5.886;2023-04-28T11:26:07;100867.00;;;19.79;36.34
62710;BME280;48770;51.624;5.886;2023-04-28T11:28:33;100865.03;;;19.79;36.52
62710;BME280;48770;51.624;5.886;2023-04-28T11:31:11;100852.78;;;19.80;36.49
62710;BME280;48770;51.624;5.886;2023-04-28T11:33:37;100856.38;;;19.81;36.52
62710;BME280;48770;51.624;5.886;2023-04-28T11:36:04;100860.75;;;19.82;36.56
62710;BME280;48770;51.624;5.886;2023-04-28T11:38:42;100860.75;;;19.82;36.43
62710;BME280;48770;51.624;5.886;2023-04-28T11:41:07;100855.22;;;19.82;36.42
62710;BME280;48770;51.624;5.886;2023-04-28T11:43:32;100842.16;;;19.82;36.24
62710;BME280;48770;51.624;5.886;2023-04-28T11:45:58;100835.44;;;19.83;36.49
62710;BME280;48770;51.624;5.886;2023-04-28T11:48:23;100845.72;;;19.83;36.62
62710;BME280;48770;51.624;5.886;2023-04-28T11:50:48;100839.81;;;19.84;36.54
62710;BME280;48770;51.624;5.886;2023-04-28T11:53:13;100851.75;;;19.85;36.31
62710;BME280;48770;51.624;5.886;2023-04-28T11:55:39;100850.94;;;19.84;36.43
62710;BME280;48770;51.624;5.886;2023-04-28T11:58:20;100848.97;;;19.85;36.55
62710;BME280;48770;51.624;5.886;2023-04-28T12:01:11;100849.66;;;19.82;36.42
62710;BME280;48770;51.624;5.886;2023-04-28T12:03:44;100857.28;;;19.85;36.37
62710;BME280;48770;51.624;5.886;2023-04-28T12:06:10;100846.19;;;19.85;36.48
62710;BME280;48770;51.624;5.886;2023-04-28T12:08:36;100845.84;;;19.86;36.30
62710;BME280;48770;51.624;5.886;2023-04-28T12:11:09;100848.63;;;19.86;36.49
62710;BME280;48770;51.624;5.886;2023-04-28T12:13:35;100848.63;;;19.86;36.46
62710;BME280;48770;51.624;5.886;2023-04-28T12:16:05;100853.00;;;19.87;36.49
62710;BME280;48770;51.624;5.886;2023-04-28T12:18:31;100847.47;;;19.87;36.36
62710;BME280;48770;51.624;5.886;2023-04-28T12:20:57;100844.69;;;19.87;36.58
62710;BME280;48770;51.624;5.886;2023-04-28T12:23:32;100851.03;;;19.88;36.41
62710;BME280;48770;51.624;5.886;2023-04-28T12:25:59;100853.00;;;19.87;36.43
62710;BME280;48770;51.624;5.886;2023-04-28T12:28:40;100853.34;;;19.86;36.49
62710;BME280;48770;51.624;5.886;2023-04-28T12:31:08;100857.28;;;19.85;36.53
62710;BME280;48770;51.624;5.886;2023-04-28T12:33:34;100856.94;;;19.86;36.54
62710;BME280;48770;51.624;5.886;2023-04-28T12:36:04;100856.94;;;19.86;36.55
62710;BME280;48770;51.624;5.886;2023-04-28T12:38:30;100856.13;;;19.86;36.57
62710;BME280;48770;51.624;5.886;2023-04-28T12:40:56;100860.06;;;19.85;36.29
62710;BME280;48770;51.624;5.886;2023-04-28T12:43:22;100858.91;;;19.86;36.59
62710;BME280;48770;51.624;5.886;2023-04-28T12:45:54;100872.44;;;19.87;36.50
62710;BME280;48770;51.624;5.886;2023-04-28T12:48:21;100868.03;;;19.86;36.60
62710;BME280;48770;51.624;5.886;2023-04-28T12:50:49;100876.38;;;19.86;36.48
62710;BME280;48770;51.624;5.886;2023-04-28T12:53:14;100871.63;;;19.87;36.42
62710;BME280;48770;51.624;5.886;2023-04-28T12:55:39;100878.78;;;19.88;36.50
62710;BME280;48770;51.624;5.886;2023-04-28T12:58:05;100872.44;;;19.87;36.58
62710;BME280;48770;51.624;5.886;2023-04-28T13:00:31;100873.25;;;19.88;36.54
62710;BME280;48770;51.624;5.886;2023-04-28T13:02:56;100873.25;;;19.88;36.54
62710;BME280;48770;51.624;5.886;2023-04-28T13:05:22;100884.34;;;19.88;36.50
62710;BME280;48770;51.624;5.886;2023-04-28T13:07:52;100873.25;;;19.88;36.66
62710;BME280;48770;51.624;5.886;2023-04-28T13:10:17;100873.25;;;19.88;36.47